Beallwood, Georgia
Current Conditions -  °F | °C
As of 4:51 AM on Thursday 27 Nov 2014 (Local Time) from KCSG Reporting Station
Clear Clear  
Wind Chill: 39°   Ceiling: Unl
Heat Index: 45°   Visibility: 10mi
Dew Point: 27°   Wind: 13mph
Humidity: 49%   Direction: 340°NNW
Pressure: 30.19"   Gusts: 18mph
Location:  32.5529°N, 84.9996°W
Report Text: KCSG 270951Z AUTO 34011G16KT 10SM CLR 07/M03 A3019 RMK AO2 SLP223 T00721028
Loading
Personal Weather Stations






























Interactive Weather Map New forecast layout! Learn more

10-Day Weather Forecast

Advertisements
Track Severe Weather on mobile